createdAt,value
2023-01-02T00:01:43.112Z,100727.19
2023-01-02T00:04:11.358Z,100723.72
2023-01-02T00:06:40.345Z,100721.00
2023-01-02T00:09:10.604Z,100721.91
2023-01-02T00:11:39.506Z,100713.00
2023-01-02T00:14:07.780Z,100705.09
2023-01-02T00:16:36.345Z,100714.78
2023-01-02T00:19:04.740Z,100700.75
2023-01-02T00:21:36.350Z,100699.91
2023-01-02T00:24:06.017Z,100712.22
2023-01-02T00:26:35.955Z,100708.72
2023-01-02T00:29:08.575Z,100704.34
2023-01-02T00:31:38.446Z,100700.94
2023-01-02T00:34:08.829Z,100699.19
2023-01-02T00:36:37.255Z,100698.34
2023-01-02T00:39:06.723Z,100686.94
2023-01-02T00:41:40.717Z,100689.69
2023-01-02T00:44:09.359Z,100695.00
2023-01-02T00:46:37.953Z,100700.25
2023-01-02T00:49:07.061Z,100702.00
2023-01-02T00:51:35.700Z,100698.47
2023-01-02T00:54:04.362Z,100704.69
2023-01-02T00:56:32.933Z,100695.84
2023-01-02T00:59:02.708Z,100686.25
2023-01-02T01:01:30.985Z,100692.34
2023-01-02T01:03:59.568Z,100695.84
2023-01-02T01:06:28.121Z,100696.75
2023-01-02T01:08:56.333Z,100692.31
2023-01-02T01:11:24.609Z,100674.78
2023-01-02T01:13:53.873Z,100680.94
2023-01-02T01:16:23.484Z,100680.94
2023-01-02T01:18:55.272Z,100665.97
2023-01-02T01:21:24.157Z,100669.47
2023-01-02T01:23:54.260Z,100675.66
2023-01-02T01:26:24.146Z,100680.00
2023-01-02T01:28:54.281Z,100677.38
2023-01-02T01:31:24.948Z,100672.09
2023-01-02T01:33:53.553Z,100672.94
2023-01-02T01:36:25.045Z,100677.38
2023-01-02T01:38:53.443Z,100676.50
2023-01-02T01:41:24.403Z,100676.63
2023-01-02T01:43:55.994Z,100671.41
2023-01-02T01:46:32.044Z,100678.44
2023-01-02T01:49:05.275Z,100673.16
2023-01-02T01:51:39.283Z,100669.63
2023-01-02T01:54:12.109Z,100675.78
2023-01-02T01:56:44.751Z,100676.63
2023-01-02T01:59:14.324Z,100680.03
2023-01-02T02:01:45.035Z,100665.97
2023-01-02T02:04:15.683Z,100676.50
2023-01-02T02:06:44.251Z,100674.78
2023-01-02T02:09:20.042Z,100658.97
2023-01-02T02:11:48.959Z,100662.41
2023-01-02T02:14:17.464Z,100673.81
2023-01-02T02:16:54.782Z,100650.94
2023-01-02T02:20:06.097Z,100646.59
2023-01-02T02:23:18.345Z,100645.75
2023-01-02T02:26:46.633Z,100649.19
2023-01-02T02:30:09.836Z,100647.41
2023-01-02T02:33:13.025Z,100635.13
2023-01-02T02:35:54.353Z,100632.47
2023-01-02T02:38:37.349Z,100639.50
2023-01-02T02:41:17.238Z,100636.91
2023-01-02T02:43:58.095Z,100640.50
2023-01-02T02:46:38.130Z,100638.00
2023-01-02T02:49:16.025Z,100627.53
2023-01-02T02:51:51.625Z,100642.47
2023-01-02T02:54:25.697Z,100633.72
2023-01-02T02:56:55.215Z,100626.72
2023-01-02T02:59:24.460Z,100636.34
2023-01-02T03:01:52.755Z,100625.75
2023-01-02T03:04:24.151Z,100629.31
2023-01-02T03:07:12.169Z,100618.03
2023-01-02T03:09:51.718Z,100606.59
2023-01-02T03:12:33.128Z,100600.56
2023-01-02T03:15:16.360Z,100591.84
2023-01-02T03:18:05.417Z,100610.28
2023-01-02T03:20:40.739Z,100616.41
2023-01-02T03:23:17.208Z,100630.44
2023-01-02T03:25:46.394Z,100612.00
2023-01-02T03:28:19.968Z,100619.88
2023-01-02T03:30:51.462Z,100619.09
2023-01-02T03:33:26.238Z,100634.03
2023-01-02T03:35:57.891Z,100630.72
2023-01-02T03:38:30.124Z,100634.28
2023-01-02T03:41:07.738Z,100637.03
2023-01-02T03:43:38.268Z,100630.06
2023-01-02T03:46:14.843Z,100636.22
2023-01-02T03:48:50.195Z,100642.44
2023-01-02T03:51:20.282Z,100644.22
2023-01-02T03:53:50.096Z,100644.34
2023-01-02T03:56:28.193Z,100637.47
2023-01-02T03:59:06.838Z,100642.84
2023-01-02T04:01:42.153Z,100648.22
2023-01-02T04:04:15.747Z,100640.41
2023-01-02T04:06:51.841Z,100643.16
2023-01-02T04:09:23.284Z,100646.78
2023-01-02T04:11:57.282Z,100653.91
2023-01-02T04:14:31.868Z,100649.59
2023-01-02T04:17:04.430Z,100659.38
2023-01-02T04:19:36.790Z,100657.75
2023-01-02T04:22:15.549Z,100656.97
2023-01-02T04:24:49.794Z,100659.72
2023-01-02T04:27:26.532Z,100658.13
2023-01-02T04:29:55.661Z,100661.69
2023-01-02T04:32:29.997Z,100679.31
2023-01-02T04:35:01.687Z,100677.69
2023-01-02T04:37:35.000Z,100675.19
2023-01-02T04:40:11.795Z,100666.50
2023-01-02T04:42:40.433Z,100670.09
2023-01-02T04:45:10.275Z,100656.16
2023-01-02T04:47:38.562Z,100658.84
2023-01-02T04:50:08.418Z,100658.00
2023-01-02T04:52:38.306Z,100651.88
2023-01-02T04:55:08.254Z,100650.03
2023-01-02T04:57:37.045Z,100648.31
2023-01-02T05:00:09.073Z,100657.03
2023-01-02T05:02:38.021Z,100665.81
2023-01-02T05:05:09.052Z,100666.69
2023-01-02T05:07:39.532Z,100658.78
2023-01-02T05:10:10.047Z,100659.72
2023-01-02T05:12:39.929Z,100666.75
2023-01-02T05:15:10.355Z,100665.81
2023-01-02T05:17:40.268Z,100662.31
2023-01-02T05:20:11.467Z,100672.72
2023-01-02T05:22:59.466Z,100676.16
2023-01-02T05:25:29.085Z,100688.34
2023-01-02T05:27:57.632Z,100690.13
2023-01-02T05:30:26.988Z,100702.34
2023-01-02T05:32:55.593Z,100694.53
2023-01-02T05:35:30.187Z,100697.19
2023-01-02T05:38:02.709Z,100703.38
2023-01-02T05:40:31.241Z,100709.66
2023-01-02T05:43:00.100Z,100715.97
2023-01-02T05:45:28.444Z,100720.56
2023-01-02T05:47:56.816Z,100721.63
2023-01-02T05:50:25.328Z,100719.19
2023-01-02T05:52:53.838Z,100710.56
2023-01-02T05:55:23.462Z,100710.66
2023-01-02T05:57:58.539Z,100701.13
2023-01-02T06:00:26.823Z,100703.78
2023-01-02T06:02:55.478Z,100710.81
2023-01-02T06:05:24.081Z,100709.97
2023-01-02T06:07:52.315Z,100713.47
2023-01-02T06:10:20.909Z,100722.22
2023-01-02T06:12:50.722Z,100721.38
2023-01-02T06:15:19.245Z,100730.16
2023-01-02T06:17:49.454Z,100741.53
2023-01-02T06:20:17.963Z,100730.16
2023-01-02T06:22:46.525Z,100730.16
2023-01-02T06:25:15.155Z,100737.13
2023-01-02T06:27:43.684Z,100734.47
2023-01-02T06:30:14.065Z,100740.59
2023-01-02T06:32:42.779Z,100738.81
2023-01-02T06:35:11.326Z,100735.34
2023-01-02T06:37:44.991Z,100739.75
2023-01-02T06:40:14.004Z,100745.00
2023-01-02T06:42:44.542Z,100745.84
2023-01-02T06:45:14.551Z,100744.16
2023-01-02T06:47:43.062Z,100751.13
2023-01-02T06:50:11.667Z,100745.94
2023-01-02T06:52:40.829Z,100742.50
2023-01-02T06:55:09.585Z,100749.59
2023-01-02T06:57:38.079Z,100747.84
2023-01-02T07:00:07.760Z,100752.25
2023-01-02T07:02:37.384Z,100744.41
2023-01-02T07:05:06.647Z,100739.16
2023-01-02T07:07:37.538Z,100746.16
2023-01-02T07:10:07.104Z,100751.38
2023-01-02T07:12:36.436Z,100757.50
2023-01-02T07:15:06.635Z,100756.63
2023-01-02T07:17:36.661Z,100768.78
2023-01-02T07:20:05.952Z,100765.28
2023-01-02T07:22:34.210Z,100768.66
2023-01-02T07:25:02.699Z,100764.22
2023-01-02T07:27:31.321Z,100758.88
2023-01-02T07:29:59.662Z,100759.66
2023-01-02T07:32:27.981Z,100753.44
2023-01-02T07:34:57.556Z,100764.72
2023-01-02T07:37:26.139Z,100768.16
2023-01-02T07:39:54.629Z,100770.63
2023-01-02T07:42:23.184Z,100776.59
2023-01-02T07:44:51.707Z,100769.44
2023-01-02T07:47:20.264Z,100778.94
2023-01-02T07:49:48.761Z,100784.09
2023-01-02T07:52:18.339Z,100784.75
2023-01-02T07:54:46.853Z,100784.56
2023-01-02T07:57:15.379Z,100789.63
2023-01-02T07:59:44.978Z,100793.00
2023-01-02T08:02:13.558Z,100787.63
2023-01-02T08:04:42.114Z,100796.28
2023-01-02T08:07:11.410Z,100779.47
2023-01-02T08:09:40.984Z,100785.53
2023-01-02T08:12:09.344Z,100781.97
2023-01-02T08:14:37.709Z,100781.94
2023-01-02T08:17:05.974Z,100790.63
2023-01-02T08:19:34.563Z,100794.13
2023-01-02T08:22:03.350Z,100802.84
2023-01-02T08:24:31.860Z,100805.44
2023-01-02T08:27:01.522Z,100822.88
2023-01-02T08:29:29.802Z,100825.53
2023-01-02T08:31:59.441Z,100829.91
2023-01-02T08:34:27.941Z,100830.69
2023-01-02T08:36:56.274Z,100835.84
2023-01-02T08:39:24.758Z,100840.03
2023-01-02T08:41:53.357Z,100844.19
2023-01-02T08:44:22.925Z,100847.50
2023-01-02T08:46:51.293Z,100850.72
2023-01-02T08:49:19.954Z,100847.91
2023-01-02T08:51:48.322Z,100847.63
2023-01-02T08:54:16.865Z,100833.38
2023-01-02T08:56:45.059Z,100841.19
2023-01-02T08:59:14.037Z,100844.56
2023-01-02T09:01:43.823Z,100855.06
2023-01-02T09:04:13.521Z,100856.75
2023-01-02T09:06:45.114Z,100854.13
2023-01-02T09:09:15.735Z,100864.59
2023-01-02T09:11:48.902Z,100871.53
2023-01-02T09:14:17.742Z,100875.00
2023-01-02T09:16:48.046Z,100872.28
2023-01-02T09:19:16.288Z,100872.19
2023-01-02T09:22:40.596Z,100886.91
2023-01-02T09:25:10.405Z,100883.13
2023-01-02T09:27:38.590Z,100889.00
2023-01-02T09:30:08.266Z,100893.97
2023-01-02T09:32:37.157Z,100893.53
2023-01-02T09:35:06.701Z,100898.34
2023-01-02T09:37:35.263Z,100896.31
2023-01-02T09:40:06.720Z,100888.19
2023-01-02T09:42:35.247Z,100904.81
2023-01-02T09:45:09.164Z,100900.38
2023-01-02T09:47:40.576Z,100921.31
2023-01-02T09:50:16.483Z,100912.97
2023-01-02T09:52:50.510Z,100922.00
2023-01-02T09:55:36.763Z,100923.88
2023-01-02T09:58:17.053Z,100921.19
2023-01-02T10:00:49.035Z,100911.97
2023-01-02T10:03:27.900Z,100923.91
2023-01-02T10:06:16.215Z,100918.63
2023-01-02T10:08:56.905Z,100928.22
2023-01-02T10:11:44.608Z,100929.25
2023-01-02T10:14:24.010Z,100932.75
2023-01-02T10:17:01.675Z,100938.91
2023-01-02T10:19:41.503Z,100923.91
2023-01-02T10:22:14.537Z,100934.38
2023-01-02T10:24:47.801Z,100914.06
2023-01-02T10:27:23.335Z,100941.44
2023-01-02T10:30:03.622Z,100941.50
2023-01-02T10:32:36.199Z,100942.47
2023-01-02T10:35:23.035Z,100939.22
2023-01-02T10:37:53.213Z,100940.06
2023-01-02T10:40:21.791Z,100951.50
2023-01-02T10:43:00.089Z,100942.09
2023-01-02T10:45:29.330Z,100932.19
2023-01-02T10:47:57.575Z,100933.22
2023-01-02T10:50:39.495Z,100941.13
2023-01-02T10:53:10.661Z,100932.91
2023-01-02T10:55:41.914Z,100923.66
2023-01-02T10:58:22.319Z,100925.06
2023-01-02T11:00:52.366Z,100925.72
2023-01-02T11:03:25.290Z,100938.59
2023-01-02T11:05:59.372Z,100927.63
2023-01-02T11:08:40.507Z,100924.47
2023-01-02T11:11:16.282Z,100932.34
2023-01-02T11:13:54.514Z,100936.56
2023-01-02T11:16:25.695Z,100930.19
2023-01-02T11:18:58.372Z,100940.63
2023-01-02T11:21:29.896Z,100943.78
2023-01-02T11:24:04.461Z,100953.97
2023-01-02T11:26:34.174Z,100946.06
2023-01-02T11:29:09.560Z,100945.00
2023-01-02T11:31:44.123Z,100960.81
2023-01-02T11:34:21.640Z,100946.72
2023-01-02T11:37:14.403Z,100945.00
2023-01-02T11:39:43.685Z,100955.56
2023-01-02T11:42:40.311Z,100964.34
2023-01-02T11:45:14.722Z,100964.47
2023-01-02T11:47:47.906Z,100964.53
2023-01-02T11:50:24.020Z,100975.13
2023-01-02T11:53:01.387Z,100988.38
2023-01-02T11:55:41.267Z,100963.16
2023-01-02T11:58:20.277Z,100956.41
2023-01-02T12:00:56.363Z,100953.03
2023-01-02T12:03:28.036Z,100965.38
2023-01-02T12:06:10.744Z,100960.13
2023-01-02T12:08:54.497Z,100969.84
2023-01-02T12:11:34.295Z,100972.56
2023-01-02T12:14:14.636Z,100989.19
2023-01-02T12:16:56.965Z,100981.97
2023-01-02T12:20:03.352Z,101000.38
2023-01-02T12:23:10.590Z,100989.84
2023-01-02T12:26:05.592Z,100980.19
2023-01-02T12:29:47.227Z,100991.75
2023-01-02T12:32:58.430Z,100985.56
2023-01-02T12:36:02.646Z,100986.91
2023-01-02T12:38:48.535Z,100991.03
2023-01-02T12:41:28.699Z,100995.97
2023-01-02T12:44:14.274Z,100987.69
2023-01-02T12:47:03.123Z,100984.66
2023-01-02T12:49:57.248Z,100991.03
2023-01-02T12:52:46.162Z,100988.44
2023-01-02T12:55:28.770Z,100995.44
2023-01-02T12:58:03.682Z,100979.56
2023-01-02T13:00:56.153Z,100982.25
2023-01-02T13:04:00.493Z,100974.22
2023-01-02T13:06:51.640Z,100975.75
2023-01-02T13:09:29.240Z,100985.25
2023-01-02T13:12:06.020Z,100978.97
2023-01-02T13:14:40.983Z,100992.78
2023-01-02T13:17:32.236Z,100983.78
2023-01-02T13:20:06.337Z,100974.72
2023-01-02T13:22:42.595Z,100985.00
2023-01-02T13:25:17.407Z,100985.53
2023-01-02T13:27:46.633Z,100991.50
2023-01-02T13:30:46.576Z,100987.00
2023-01-02T13:33:30.332Z,100989.47
2023-01-02T13:36:03.665Z,100987.66
2023-01-02T13:38:37.685Z,100987.56
2023-01-02T13:41:06.352Z,100983.91
2023-01-02T13:43:35.448Z,100981.13
2023-01-02T13:46:04.289Z,100984.47
2023-01-02T13:48:39.089Z,100984.34
2023-01-02T13:51:14.006Z,100983.50
2023-01-02T13:53:46.798Z,100997.50
2023-01-02T13:56:17.072Z,100997.41
2023-01-02T13:58:52.992Z,100995.59
2023-01-02T14:02:16.684Z,100997.41
2023-01-02T14:04:45.389Z,101003.44
2023-01-02T14:07:48.769Z,100990.34
2023-01-02T14:10:42.462Z,100998.25
2023-01-02T14:13:25.659Z,100992.91
2023-01-02T14:16:33.705Z,100998.25
2023-01-02T14:19:24.415Z,100990.34
2023-01-02T14:22:03.483Z,100993.72
2023-01-02T14:24:38.239Z,100989.28
2023-01-02T14:27:18.217Z,100997.31
2023-01-02T14:29:53.261Z,101015.72
2023-01-02T14:32:28.791Z,100990.13
2023-01-02T14:34:59.437Z,100982.13
2023-01-02T14:37:36.400Z,101000.47
2023-01-02T14:40:36.281Z,101004.00
2023-01-02T14:43:32.339Z,101021.47
2023-01-02T14:46:10.100Z,101017.91
2023-01-02T14:48:48.959Z,101010.84
2023-01-02T14:51:24.169Z,101023.91
2023-01-02T14:53:57.765Z,101030.97
2023-01-02T14:56:32.572Z,101022.13
2023-01-02T14:59:04.221Z,101024.72
2023-01-02T15:01:43.863Z,101034.38
2023-01-02T15:04:22.720Z,101048.41
2023-01-02T15:06:58.639Z,101055.47
2023-01-02T15:09:33.594Z,101066.91
2023-01-02T15:12:20.702Z,101047.75
2023-01-02T15:14:50.631Z,101047.84
2023-01-02T15:17:22.536Z,101048.84
2023-01-02T15:19:51.330Z,101053.22
2023-01-02T15:22:23.721Z,101072.56
2023-01-02T15:24:54.880Z,101084.88
2023-01-02T15:27:26.202Z,101122.56
2023-01-02T15:29:59.712Z,101091.75
2023-01-02T15:32:31.940Z,101093.47
2023-01-02T15:35:20.872Z,101099.66
2023-01-02T15:37:50.604Z,101112.84
2023-01-02T15:40:25.462Z,101119.03
2023-01-02T15:43:12.458Z,101123.59
2023-01-02T15:45:46.662Z,101121.00
2023-01-02T15:48:15.602Z,101132.50
2023-01-02T15:50:44.414Z,101141.31
2023-01-02T15:53:24.365Z,101158.03
2023-01-02T15:55:53.121Z,101190.69
2023-01-02T15:58:27.842Z,101200.41
2023-01-02T16:01:14.878Z,101206.84
2023-01-02T16:04:03.351Z,101209.41
2023-01-02T16:06:35.147Z,101216.22
2023-01-02T16:09:06.385Z,101232.44
2023-01-02T16:11:46.656Z,101232.75
2023-01-02T16:14:21.913Z,101235.66
2023-01-02T16:16:56.988Z,101240.25
2023-01-02T16:19:32.546Z,101237.00
2023-01-02T16:22:16.668Z,101224.91
2023-01-02T16:24:48.135Z,101218.91
2023-01-02T16:27:25.083Z,101212.06
2023-01-02T16:29:54.535Z,101210.34
2023-01-02T16:32:29.154Z,101206.97
2023-01-02T16:35:22.505Z,101196.56
2023-01-02T16:37:56.383Z,101192.31
2023-01-02T16:40:59.752Z,101192.38
2023-01-02T16:43:37.976Z,101206.41
2023-01-02T16:46:15.220Z,101222.22
2023-01-02T16:48:47.055Z,101241.50
2023-01-02T16:51:16.709Z,101251.16
2023-01-02T16:53:46.457Z,101259.91
2023-01-02T16:56:16.060Z,101267.81
2023-01-02T16:58:44.587Z,101255.56
2023-01-02T17:01:15.129Z,101263.50
2023-01-02T17:03:45.521Z,101264.44
2023-01-02T17:06:18.167Z,101267.13
2023-01-02T17:08:46.950Z,101279.34
2023-01-02T17:11:21.453Z,101291.59
2023-01-02T17:13:50.271Z,101285.53
2023-01-02T17:16:19.584Z,101304.75
2023-01-02T17:18:49.332Z,101310.91
2023-01-02T17:21:17.584Z,101319.63
2023-01-02T17:23:45.841Z,101326.66
2023-01-02T17:26:14.214Z,101331.00
2023-01-02T17:28:42.762Z,101346.75
2023-01-02T17:31:15.454Z,101354.63
2023-01-02T17:33:44.250Z,101365.13
2023-01-02T17:36:14.860Z,101378.22
2023-01-02T17:38:44.250Z,101373.84
2023-01-02T17:41:12.808Z,101367.69
2023-01-02T17:44:02.684Z,101383.44
2023-01-02T17:47:04.499Z,101374.69
2023-01-02T17:49:18.489Z,101385.22
2023-01-02T17:51:48.139Z,101384.34
2023-01-02T17:54:16.709Z,101386.91
2023-01-02T17:56:47.247Z,101382.56
2023-01-02T17:59:19.168Z,101389.53
2023-01-02T18:01:48.351Z,101388.69
2023-01-02T18:04:17.281Z,101397.41
2023-01-02T18:06:47.172Z,101402.66
2023-01-02T18:09:16.683Z,101404.44
2023-01-02T18:11:45.298Z,101416.72
2023-01-02T18:14:18.760Z,101421.97
2023-01-02T18:16:48.234Z,101428.13
2023-01-02T18:19:18.986Z,101436.91
2023-01-02T18:21:48.883Z,101445.66
2023-01-02T18:24:25.000Z,101442.25
2023-01-02T18:27:00.648Z,101451.03
2023-01-02T18:29:29.232Z,101474.69
2023-01-02T18:31:57.789Z,101465.97
2023-01-02T18:34:48.107Z,101459.91
2023-01-02T18:37:22.404Z,101465.19
2023-01-02T18:39:52.001Z,101473.94
2023-01-02T18:42:22.915Z,101459.97
2023-01-02T18:44:52.763Z,101468.69
2023-01-02T18:47:29.654Z,101470.50
2023-01-02T18:50:03.320Z,101486.25
2023-01-02T18:52:36.926Z,101486.25
2023-01-02T18:55:22.672Z,101478.41
2023-01-02T18:57:56.631Z,101460.91
2023-01-02T19:00:28.541Z,101464.47
2023-01-02T19:03:01.533Z,101472.34
2023-01-02T19:05:33.276Z,101476.72
2023-01-02T19:08:20.550Z,101489.84
2023-01-02T19:10:53.091Z,101503.00
2023-01-02T19:13:32.307Z,101501.28
2023-01-02T19:16:02.110Z,101506.53
2023-01-02T19:18:37.810Z,101508.28
2023-01-02T19:21:18.531Z,101500.44
2023-01-02T19:23:53.873Z,101488.22
2023-01-02T19:26:28.244Z,101500.44
2023-01-02T19:29:00.644Z,101513.56
2023-01-02T19:31:41.063Z,101521.44
2023-01-02T19:34:29.180Z,101533.75
2023-01-02T19:37:18.541Z,101550.34
2023-01-02T19:39:52.005Z,101552.13
2023-01-02T19:42:22.208Z,101565.25
2023-01-02T19:44:53.746Z,101563.50
2023-01-02T19:47:24.830Z,101571.41
2023-01-02T19:49:53.711Z,101579.25
2023-01-02T19:52:23.664Z,101583.63
2023-01-02T19:54:53.598Z,101587.16
2023-01-02T19:57:23.506Z,101596.72
2023-01-02T19:59:55.496Z,101604.59
2023-01-02T20:02:25.511Z,101603.72
2023-01-02T20:04:55.444Z,101610.72
2023-01-02T20:07:25.142Z,101609.81
2023-01-02T20:09:54.847Z,101617.66
2023-01-02T20:12:34.572Z,101611.56
2023-01-02T20:15:08.843Z,101613.25
2023-01-02T20:17:38.779Z,101617.59
2023-01-02T20:20:09.853Z,101608.81
2023-01-02T20:22:38.164Z,101618.44
2023-01-02T20:25:09.026Z,101615.75
2023-01-02T20:27:37.762Z,101618.38
2023-01-02T20:30:08.596Z,101622.75
2023-01-02T20:32:37.341Z,101625.38
2023-01-02T20:35:06.741Z,101626.19
2023-01-02T20:37:35.060Z,101634.06
2023-01-02T20:40:03.663Z,101642.84
2023-01-02T20:42:33.827Z,101641.94
2023-01-02T20:45:02.655Z,101640.22
2023-01-02T20:47:31.262Z,101654.19
2023-01-02T20:50:02.355Z,101654.19
2023-01-02T20:52:30.910Z,101655.06
2023-01-02T20:54:59.776Z,101663.78
2023-01-02T20:57:28.335Z,101659.41
2023-01-02T20:59:57.960Z,101666.38
2023-01-02T21:02:26.773Z,101668.09
2023-01-02T21:04:55.896Z,101673.34
2023-01-02T21:07:24.634Z,101675.09
2023-01-02T21:09:57.462Z,101673.34
2023-01-02T21:12:43.564Z,101678.59
2023-01-02T21:15:33.868Z,101680.38
2023-01-02T21:18:02.666Z,101682.13
2023-01-02T21:20:31.237Z,101691.75
2023-01-02T21:22:59.500Z,101694.34
2023-01-02T21:25:28.261Z,101687.38
2023-01-02T21:27:56.946Z,101691.75
2023-01-02T21:30:26.567Z,101697.84
2023-01-02T21:32:54.913Z,101699.59
2023-01-02T21:35:23.745Z,101711.84
2023-01-02T21:37:52.821Z,101708.31
2023-01-02T21:40:21.432Z,101701.34
2023-01-02T21:42:50.032Z,101706.59
2023-01-02T21:45:18.974Z,101710.09
2023-01-02T21:47:48.862Z,101717.97
2023-01-02T21:50:17.375Z,101714.50
2023-01-02T21:52:45.956Z,101713.63
2023-01-02T21:55:17.455Z,101723.25
2023-01-02T21:58:12.519Z,101722.41
2023-01-02T22:00:34.911Z,101731.13
2023-01-02T22:03:04.986Z,101736.38
2023-01-02T22:05:33.643Z,101733.78
2023-01-02T22:08:02.213Z,101738.16
2023-01-02T22:10:30.829Z,101741.63
2023-01-02T22:12:59.359Z,101748.63
2023-01-02T22:15:27.920Z,101750.34
2023-01-02T22:17:58.788Z,101758.22
2023-01-02T22:20:28.403Z,101749.47
2023-01-02T22:22:57.128Z,101748.63
2023-01-02T22:25:25.713Z,101757.34
2023-01-02T22:27:54.282Z,101764.38
2023-01-02T22:30:29.343Z,101758.25
2023-01-02T22:33:02.097Z,101762.63
2023-01-02T22:35:31.796Z,101766.13
2023-01-02T22:38:00.112Z,101767.88
2023-01-02T22:40:29.397Z,101767.91
2023-01-02T22:43:03.418Z,101760.06
2023-01-02T22:45:38.099Z,101767.91
2023-01-02T22:48:15.587Z,101772.28
2023-01-02T22:50:47.036Z,101787.13
2023-01-02T22:53:28.404Z,101781.91
2023-01-02T22:55:57.095Z,101795.84
2023-01-02T22:58:26.189Z,101788.88
2023-01-02T23:01:00.339Z,101795.84
2023-01-02T23:03:30.374Z,101795.84
2023-01-02T23:06:00.031Z,101799.34
2023-01-02T23:08:29.010Z,101807.22
2023-01-02T23:10:57.642Z,101801.09
2023-01-02T23:13:26.194Z,101801.09
2023-01-02T23:16:12.561Z,101804.59
2023-01-02T23:18:58.829Z,101802.00
2023-01-02T23:21:31.215Z,101801.09
2023-01-02T23:23:59.975Z,101798.50
2023-01-02T23:26:43.464Z,101795.88
2023-01-02T23:29:13.002Z,101795.88
2023-01-02T23:31:43.498Z,101800.25
2023-01-02T23:34:13.787Z,101797.66
2023-01-02T23:36:44.273Z,101803.75
2023-01-02T23:39:14.890Z,101802.88
2023-01-02T23:41:45.482Z,101808.13
2023-01-02T23:44:14.431Z,101813.38
2023-01-02T23:46:43.618Z,101809.00
2023-01-02T23:49:13.347Z,101810.75
2023-01-02T23:51:43.280Z,101813.38
2023-01-02T23:54:14.698Z,101805.50
2023-01-02T23:56:46.387Z,101818.59
2023-01-02T23:59:17.927Z,101823.84
